South Waterford, Maine
Current Conditions -  °F | °C
As of 4:54 AM on Saturday 22 Nov 2014 (Local Time) from KIZG Reporting Station
Clear Clear  
Wind Chill: 11°   Ceiling: Unl
Heat Index: 19°   Visibility: 10mi
Dew Point:   Wind: 6mph
Humidity: 59%   Direction: 220°SW
Pressure: 30.31"   Gusts: NA
Location:  44.17°N, 70.72°W
Report Text: KIZG 220954Z AUTO 22005KT 10SM CLR M07/M14 A3031 RMK AO2 SLP273 T10721139
Loading
Personal Weather Stations






























Interactive Weather Map New forecast layout! Learn more

10-Day Weather Forecast

Advertisements
Track Severe Weather on mobile